Time;durP1;ratioP1;P1;durP2;ratioP2;P2;SDS_P1;SDS_P2;PMS_P1;PMS_P2;Temp;Humidity;BMP_temperature;BMP_pressure;BME280_temperature;BME280_humidity;BME280_pressure;Samples;Min_cycle;Max_cycle;Signal;HPM_P1;HPM_P2
2023/09/27 00:00:13;;;;;;;21.80;10.50;;;;;;;;;;6199104;23;20163;-95
2023/09/27 00:03:19;;;;;;;24.88;10.30;;;;;;;;;;6201082;23;20159;-93
2023/09/27 00:06:25;;;;;;;28.70;11.13;;;;;;;;;;6202514;22;20708;-93
2023/09/27 00:09:32;;;;;;;23.42;11.60;;;;;;;;;;6201377;22;20239;-95
2023/09/27 00:12:38;;;;;;;33.55;11.85;;;;;;;;;;6203929;23;20159;-95
2023/09/27 00:15:43;;;;;;;35.28;11.80;;;;;;;;;;6203634;22;20203;-92
2023/09/27 00:18:48;;;;;;;27.90;12.20;;;;;;;;;;6202879;23;20188;-93
2023/09/27 00:21:55;;;;;;;24.13;11.23;;;;;;;;;;6202578;23;20270;-94
2023/09/27 00:25:01;;;;;;;26.00;10.43;;;;;;;;;;6202178;23;20191;-91
2023/09/27 00:28:06;;;;;;;24.20;11.13;;;;;;;;;;6201301;23;20171;-94
2023/09/27 00:31:12;;;;;;;18.98;10.50;;;;;;;;;;6201836;23;20167;-93
2023/09/27 00:34:17;;;;;;;17.80;10.68;;;;;;;;;;6202793;22;20595;-94
2023/09/27 00:37:26;;;;;;;19.17;10.60;;;;;;;;;;6202303;23;20199;-95
2023/09/27 00:40:31;;;;;;;19.80;10.63;;;;;;;;;;6204069;23;20151;-94
2023/09/27 00:43:36;;;;;;;26.67;11.95;;;;;;;;;;6202882;23;20251;-93
2023/09/27 00:46:41;;;;;;;28.88;11.63;;;;;;;;;;6202729;22;20160;-93
2023/09/27 00:49:48;;;;;;;29.67;11.57;;;;;;;;;;6202227;22;20164;-95
2023/09/27 00:52:56;;;;;;;30.65;11.68;;;;;;;;;;6201995;22;20151;-93
2023/09/27 00:56:02;;;;;;;24.27;10.98;;;;;;;;;;6199068;22;20375;-94
2023/09/27 00:59:08;;;;;;;22.70;11.18;;;;;;;;;;6200051;23;20200;-90
2023/09/27 01:02:14;;;;;;;29.67;11.70;;;;;;;;;;6201689;23;20199;-94
2023/09/27 01:05:19;;;;;;;27.17;10.60;;;;;;;;;;6201035;23;20223;-94
2023/09/27 01:08:27;;;;;;;24.80;12.02;;;;;;;;;;6201032;23;20160;-94
2023/09/27 01:11:32;;;;;;;40.58;10.98;;;;;;;;;;6203080;23;20163;-92
2023/09/27 01:14:37;;;;;;;32.15;11.20;;;;;;;;;;6201096;22;20215;-92
2023/09/27 01:17:55;;;;;;;22.35;10.48;;;;;;;;;;6201078;23;20195;-94
2023/09/27 01:21:00;;;;;;;32.40;11.55;;;;;;;;;;6201064;23;20302;-95
2023/09/27 01:24:07;;;;;;;23.50;10.38;;;;;;;;;;6201722;23;20172;-94
2023/09/27 01:27:14;;;;;;;17.42;10.07;;;;;;;;;;6183901;22;20196;-96
2023/09/27 01:30:20;;;;;;;18.30;9.52;;;;;;;;;;6199727;23;20167;-94
2023/09/27 01:33:25;;;;;;;22.88;9.85;;;;;;;;;;6181897;22;20191;-94
2023/09/27 01:36:31;;;;;;;25.02;10.80;;;;;;;;;;6181944;23;20195;-93
2023/09/27 01:39:37;;;;;;;27.98;10.95;;;;;;;;;;6200360;23;20168;-95
2023/09/27 01:45:39;;;;;;;20.10;10.00;;;;;;;;;;6182957;22;20204;-93
2023/09/27 01:48:27;;;;;;;25.23;9.93;;;;;;;;;;6155825;23;20212;-94
2023/09/27 01:51:33;;;;;;;22.92;10.57;;;;;;;;;;6183704;23;20171;-93
2023/09/27 01:54:39;;;;;;;19.05;10.35;;;;;;;;;;6184387;23;20297;-94
2023/09/27 01:57:46;;;;;;;32.17;10.55;;;;;;;;;;6185326;23;20201;-92
2023/09/27 02:00:51;;;;;;;21.35;9.50;;;;;;;;;;6186294;23;20163;-89
2023/09/27 02:03:42;;;;;;;14.75;9.05;;;;;;;;;;6201232;22;20216;-94
2023/09/27 02:06:58;;;;;;;19.50;9.57;;;;;;;;;;6195729;22;20212;-91
2023/09/27 02:10:06;;;;;;;16.77;9.50;;;;;;;;;;6209920;22;20187;-95
2023/09/27 02:13:11;;;;;;;22.50;10.18;;;;;;;;;;6210907;22;20148;-94
2023/09/27 02:16:17;;;;;;;18.30;10.30;;;;;;;;;;6213859;22;20182;-93
2023/09/27 02:19:23;;;;;;;26.45;10.45;;;;;;;;;;6212750;22;20183;-91
2023/09/27 02:22:29;;;;;;;28.85;10.45;;;;;;;;;;6211330;22;20279;-90
2023/09/27 02:25:37;;;;;;;19.45;9.93;;;;;;;;;;6213495;22;20195;-94
2023/09/27 02:28:43;;;;;;;23.13;10.60;;;;;;;;;;6211623;22;20155;-91
2023/09/27 02:31:49;;;;;;;27.92;10.88;;;;;;;;;;6213037;22;20171;-91
2023/09/27 02:34:54;;;;;;;21.05;9.77;;;;;;;;;;6214011;22;20214;-94
2023/09/27 02:37:59;;;;;;;23.70;11.13;;;;;;;;;;6210566;22;20195;-94
2023/09/27 02:41:06;;;;;;;17.25;9.65;;;;;;;;;;6212776;22;20167;-92
2023/09/27 02:44:15;;;;;;;30.98;9.63;;;;;;;;;;6172817;22;20220;-93
2023/09/27 02:47:22;;;;;;;31.83;10.32;;;;;;;;;;6180807;22;20172;-95
2023/09/27 02:50:27;;;;;;;23.52;9.60;;;;;;;;;;6182236;22;20168;-96
2023/09/27 02:53:33;;;;;;;18.60;9.07;;;;;;;;;;6181451;23;20168;-93
2023/09/27 02:56:39;;;;;;;18.60;9.10;;;;;;;;;;6181269;23;20195;-93
2023/09/27 02:59:44;;;;;;;21.13;7.93;;;;;;;;;;6181038;23;20171;-94
2023/09/27 03:02:51;;;;;;;18.23;8.63;;;;;;;;;;6180894;23;20147;-93
2023/09/27 03:05:58;;;;;;;28.30;8.35;;;;;;;;;;6182613;23;20172;-95
2023/09/27 03:09:04;;;;;;;15.88;8.15;;;;;;;;;;6183619;23;20163;-95
2023/09/27 03:12:11;;;;;;;15.88;8.73;;;;;;;;;;6184430;23;20175;-94
2023/09/27 03:15:17;;;;;;;24.92;9.65;;;;;;;;;;6183797;23;20168;-93
2023/09/27 03:18:23;;;;;;;22.65;9.25;;;;;;;;;;6199565;23;20631;-93
2023/09/27 03:24:48;;;;;;;39.33;9.32;;;;;;;;;;6182027;23;20180;-93
2023/09/27 03:27:56;;;;;;;26.92;10.05;;;;;;;;;;6182856;23;20163;-93
2023/09/27 03:31:02;;;;;;;29.65;9.60;;;;;;;;;;6182863;23;20620;-93
2023/09/27 03:34:07;;;;;;;24.65;11.40;;;;;;;;;;6182018;22;20164;-94
2023/09/27 03:37:13;;;;;;;41.83;9.98;;;;;;;;;;6183317;22;20182;-93
2023/09/27 03:40:19;;;;;;;33.05;10.30;;;;;;;;;;6183306;23;20223;-93
2023/09/27 03:43:26;;;;;;;25.83;10.27;;;;;;;;;;6182456;23;20173;-94
2023/09/27 03:46:31;;;;;;;32.70;10.45;;;;;;;;;;6183497;23;20195;-93
2023/09/27 03:49:37;;;;;;;25.58;10.20;;;;;;;;;;6184180;22;20168;-94
2023/09/27 03:52:43;;;;;;;19.23;9.85;;;;;;;;;;6184359;22;20168;-92
2023/09/27 03:55:49;;;;;;;50.95;11.55;;;;;;;;;;6183155;22;20196;-94
2023/09/27 03:58:56;;;;;;;27.40;9.80;;;;;;;;;;6183307;23;20172;-89
2023/09/27 04:02:01;;;;;;;22.90;9.13;;;;;;;;;;6181822;22;20227;-93
2023/09/27 04:05:07;;;;;;;29.95;9.75;;;;;;;;;;6181428;23;20225;-92
2023/09/27 04:08:12;;;;;;;31.00;9.63;;;;;;;;;;6182189;23;20191;-93
2023/09/27 04:11:18;;;;;;;25.63;9.25;;;;;;;;;;6182183;23;20187;-93
2023/09/27 04:14:24;;;;;;;26.02;9.60;;;;;;;;;;6183906;23;20213;-93
2023/09/27 04:17:30;;;;;;;17.65;10.20;;;;;;;;;;6184202;23;20203;-93
2023/09/27 04:20:36;;;;;;;24.08;9.85;;;;;;;;;;6183029;23;20183;-94
2023/09/27 04:23:43;;;;;;;33.22;10.18;;;;;;;;;;6183070;23;20175;-93
2023/09/27 04:26:48;;;;;;;39.30;9.15;;;;;;;;;;6181961;23;20172;-93
2023/09/27 04:29:55;;;;;;;17.70;8.60;;;;;;;;;;6181605;23;20607;-92
2023/09/27 04:33:00;;;;;;;34.22;10.10;;;;;;;;;;6181174;23;20176;-93
2023/09/27 04:36:06;;;;;;;24.77;8.65;;;;;;;;;;6181989;23;20151;-93
2023/09/27 04:39:14;;;;;;;24.92;7.95;;;;;;;;;;6181372;23;20152;-93
2023/09/27 04:42:19;;;;;;;18.77;8.35;;;;;;;;;;6182871;23;20168;-95
2023/09/27 04:45:27;;;;;;;17.92;8.15;;;;;;;;;;6182939;23;20191;-93
2023/09/27 04:48:32;;;;;;;21.45;9.00;;;;;;;;;;6184170;22;20154;-92
2023/09/27 04:51:38;;;;;;;21.02;9.20;;;;;;;;;;6182263;23;20626;-92
2023/09/27 04:54:43;;;;;;;17.58;8.70;;;;;;;;;;6182199;23;20211;-94
2023/09/27 04:57:49;;;;;;;27.88;8.30;;;;;;;;;;6181758;23;20223;-92
2023/09/27 05:00:56;;;;;;;25.08;9.00;;;;;;;;;;6183057;23;20173;-93
2023/09/27 05:04:01;;;;;;;19.40;9.32;;;;;;;;;;6182289;23;20215;-91
2023/09/27 05:07:06;;;;;;;15.70;8.73;;;;;;;;;;6179331;23;20604;-91
2023/09/27 05:10:12;;;;;;;24.02;9.00;;;;;;;;;;6184570;23;20279;-89
2023/09/27 05:13:21;;;;;;;16.77;8.82;;;;;;;;;;6184891;23;20203;-92
2023/09/27 05:16:29;;;;;;;24.83;13.52;;;;;;;;;;6185951;23;20236;-90
2023/09/27 05:19:34;;;;;;;14.95;8.77;;;;;;;;;;6183636;23;20172;-90
2023/09/27 05:22:40;;;;;;;22.90;8.77;;;;;;;;;;6183925;23;20587;-90
2023/09/27 05:25:47;;;;;;;14.07;8.50;;;;;;;;;;6186041;23;20167;-88
2023/09/27 05:28:55;;;;;;;15.70;9.43;;;;;;;;;;6183229;23;20172;-91
2023/09/27 05:32:12;;;;;;;26.65;9.60;;;;;;;;;;6185016;23;20175;-89
2023/09/27 05:35:22;;;;;;;25.73;9.75;;;;;;;;;;6186101;23;20152;-88
2023/09/27 05:38:29;;;;;;;24.15;10.15;;;;;;;;;;6186315;23;20220;-90
2023/09/27 05:41:34;;;;;;;19.70;10.35;;;;;;;;;;6185957;23;20152;-90
2023/09/27 05:44:40;;;;;;;21.13;9.55;;;;;;;;;;6184245;23;20175;-93
2023/09/27 05:47:50;;;;;;;24.33;9.20;;;;;;;;;;6187706;23;20168;-91
2023/09/27 05:50:55;;;;;;;21.73;8.98;;;;;;;;;;6183680;23;20175;-89
2023/09/27 05:54:00;;;;;;;14.00;8.52;;;;;;;;;;6184531;23;20211;-93
2023/09/27 05:57:07;;;;;;;24.45;8.65;;;;;;;;;;6185188;23;20196;-91
2023/09/27 06:00:22;;;;;;;13.85;8.43;;;;;;;;;;6186988;22;20172;-91
2023/09/27 06:03:31;;;;;;;23.05;9.45;;;;;;;;;;6186025;22;20187;-92
2023/09/27 06:06:37;;;;;;;20.88;9.30;;;;;;;;;;6185797;23;20643;-90
2023/09/27 06:09:42;;;;;;;20.13;9.20;;;;;;;;;;6178934;23;20171;-89
2023/09/27 06:12:52;;;;;;;16.38;8.73;;;;;;;;;;6181618;23;20266;-90
2023/09/27 06:15:58;;;;;;;17.88;8.85;;;;;;;;;;6186190;23;20173;-91
2023/09/27 06:19:05;;;;;;;17.23;8.55;;;;;;;;;;6183298;23;20248;-90
2023/09/27 06:22:13;;;;;;;13.23;8.55;;;;;;;;;;6187863;23;20183;-88
2023/09/27 06:25:18;;;;;;;19.88;8.82;;;;;;;;;;6184877;23;20171;-91
2023/09/27 06:28:24;;;;;;;19.30;8.43;;;;;;;;;;6184432;23;20171;-91
2023/09/27 06:31:34;;;;;;;27.65;8.07;;;;;;;;;;6183859;23;20163;-91
2023/09/27 06:34:40;;;;;;;29.17;8.55;;;;;;;;;;6182824;23;20168;-88
2023/09/27 06:37:48;;;;;;;21.88;8.82;;;;;;;;;;6184229;23;20191;-87
2023/09/27 06:40:54;;;;;;;14.60;8.10;;;;;;;;;;6183733;23;20176;-91
2023/09/27 06:44:04;;;;;;;16.60;9.07;;;;;;;;;;6184366;23;20168;-89
2023/09/27 06:47:11;;;;;;;19.45;9.25;;;;;;;;;;6182880;23;20162;-88
2023/09/27 06:50:19;;;;;;;16.95;8.95;;;;;;;;;;6182864;23;20163;-91
2023/09/27 06:53:26;;;;;;;19.02;8.60;;;;;;;;;;6183114;23;20245;-91
2023/09/27 06:56:34;;;;;;;16.27;8.77;;;;;;;;;;6181359;23;20176;-91
2023/09/27 06:59:40;;;;;;;17.30;8.95;;;;;;;;;;6182160;23;20512;-91
2023/09/27 07:02:45;;;;;;;17.52;8.23;;;;;;;;;;6182089;22;20168;-88
2023/09/27 07:05:52;;;;;;;14.05;8.43;;;;;;;;;;6183470;23;20172;-90
2023/09/27 07:08:57;;;;;;;16.73;9.20;;;;;;;;;;6181754;23;20157;-89
2023/09/27 07:12:05;;;;;;;19.38;9.02;;;;;;;;;;6183321;23;20163;-91
2023/09/27 07:15:14;;;;;;;21.92;9.45;;;;;;;;;;6185573;23;20167;-90
2023/09/27 07:18:20;;;;;;;17.15;9.40;;;;;;;;;;6182997;23;20718;-92
2023/09/27 07:21:31;;;;;;;18.10;9.35;;;;;;;;;;6184052;23;20496;-90
2023/09/27 07:24:37;;;;;;;19.35;9.98;;;;;;;;;;6183640;23;20172;-88
2023/09/27 07:27:43;;;;;;;16.55;9.48;;;;;;;;;;6182139;23;20631;-88
2023/09/27 07:30:48;;;;;;;18.75;9.52;;;;;;;;;;6183607;23;20171;-90
2023/09/27 07:33:55;;;;;;;15.55;8.48;;;;;;;;;;6185210;23;20453;-89
2023/09/27 07:37:04;;;;;;;18.48;9.45;;;;;;;;;;6184903;23;20179;-89
2023/09/27 07:40:11;;;;;;;20.73;11.02;;;;;;;;;;6185189;23;20216;-89
2023/09/27 07:43:17;;;;;;;20.52;11.23;;;;;;;;;;6184246;23;20176;-90
2023/09/27 07:46:22;;;;;;;23.83;11.95;;;;;;;;;;6185396;23;20183;-88
2023/09/27 07:49:27;;;;;;;29.30;12.98;;;;;;;;;;6183831;23;20191;-91
2023/09/27 07:52:34;;;;;;;22.35;12.10;;;;;;;;;;6181152;23;20233;-91
2023/09/27 07:55:48;;;;;;;30.58;13.10;;;;;;;;;;6182463;23;20205;-89
2023/09/27 07:58:57;;;;;;;20.85;11.50;;;;;;;;;;6180956;23;20195;-89
2023/09/27 08:02:05;;;;;;;19.00;10.07;;;;;;;;;;6182576;23;20171;-88
2023/09/27 08:05:11;;;;;;;21.10;10.85;;;;;;;;;;6183565;23;20195;-90
2023/09/27 08:08:18;;;;;;;24.02;10.85;;;;;;;;;;6182172;23;20171;-91
2023/09/27 08:11:23;;;;;;;20.45;10.82;;;;;;;;;;6182873;23;20164;-90
2023/09/27 08:14:29;;;;;;;20.70;10.55;;;;;;;;;;6181616;23;20172;-90
2023/09/27 08:17:37;;;;;;;18.80;10.50;;;;;;;;;;6181532;22;20171;-90
2023/09/27 08:20:44;;;;;;;18.98;10.55;;;;;;;;;;6180617;23;20308;-90
2023/09/27 08:23:55;;;;;;;17.48;10.05;;;;;;;;;;6180429;23;20172;-92
2023/09/27 08:27:03;;;;;;;17.08;10.35;;;;;;;;;;6180867;23;20294;-86
2023/09/27 08:30:12;;;;;;;18.92;10.02;;;;;;;;;;6179895;23;20168;-91
2023/09/27 08:33:19;;;;;;;22.38;11.57;;;;;;;;;;6183270;23;20175;-90
2023/09/27 08:36:29;;;;;;;19.83;10.45;;;;;;;;;;6184541;23;20176;-88
2023/09/27 08:39:44;;;;;;;15.65;9.43;;;;;;;;;;6184611;23;20234;-89
2023/09/27 08:42:56;;;;;;;17.17;10.27;;;;;;;;;;6166723;23;20219;-88
2023/09/27 08:46:02;;;;;;;17.77;10.57;;;;;;;;;;6183592;23;20227;-90
2023/09/27 08:49:08;;;;;;;17.98;11.30;;;;;;;;;;6184731;23;20500;-90
2023/09/27 08:52:13;;;;;;;19.77;11.48;;;;;;;;;;6184854;23;20167;-88
2023/09/27 08:55:22;;;;;;;18.63;11.65;;;;;;;;;;6186428;23;20175;-91
2023/09/27 08:58:29;;;;;;;19.30;11.57;;;;;;;;;;6185951;23;20172;-89
2023/09/27 09:01:36;;;;;;;19.70;11.50;;;;;;;;;;6186225;23;20248;-91
2023/09/27 09:04:42;;;;;;;19.65;11.43;;;;;;;;;;6185565;23;20211;-90
2023/09/27 09:07:47;;;;;;;22.10;12.15;;;;;;;;;;6186619;23;20167;-89
2023/09/27 09:10:59;;;;;;;20.75;11.93;;;;;;;;;;6185880;22;20159;-89
2023/09/27 09:14:05;;;;;;;22.27;11.80;;;;;;;;;;6186041;22;20172;-87
2023/09/27 09:17:15;;;;;;;20.95;13.07;;;;;;;;;;6190078;23;20172;-90
2023/09/27 09:20:23;;;;;;;20.30;12.23;;;;;;;;;;6189601;23;20619;-91
2023/09/27 09:23:31;;;;;;;24.08;12.88;;;;;;;;;;6185058;23;20175;-89
2023/09/27 09:26:38;;;;;;;18.75;12.13;;;;;;;;;;6185460;23;20168;-91
2023/09/27 09:29:47;;;;;;;20.75;11.60;;;;;;;;;;6183800;23;20215;-89
2023/09/27 09:32:53;;;;;;;22.48;11.30;;;;;;;;;;6185325;23;20171;-93
2023/09/27 09:35:59;;;;;;;17.15;10.85;;;;;;;;;;6186915;23;20175;-92
2023/09/27 09:39:06;;;;;;;16.70;10.52;;;;;;;;;;6185270;23;20274;-91
2023/09/27 09:42:15;;;;;;;19.65;11.10;;;;;;;;;;6186673;22;20168;-91
2023/09/27 09:45:21;;;;;;;20.75;11.90;;;;;;;;;;6205411;22;20195;-89
2023/09/27 09:48:29;;;;;;;19.38;12.52;;;;;;;;;;6185081;23;20184;-91
2023/09/27 09:51:37;;;;;;;21.35;11.82;;;;;;;;;;6187237;23;20605;-93
2023/09/27 09:54:48;;;;;;;16.35;11.10;;;;;;;;;;6187267;22;20258;-89
2023/09/27 09:58:07;;;;;;;18.00;12.07;;;;;;;;;;6187858;22;20180;-91
2023/09/27 10:01:15;;;;;;;17.63;11.30;;;;;;;;;;6185080;23;20198;-90
2023/09/27 10:04:24;;;;;;;17.88;11.05;;;;;;;;;;6186977;23;20162;-90
2023/09/27 10:07:33;;;;;;;18.55;11.65;;;;;;;;;;6184264;23;20187;-90
2023/09/27 10:10:38;;;;;;;16.33;9.75;;;;;;;;;;6184526;23;20199;-88
2023/09/27 10:13:46;;;;;;;16.85;10.57;;;;;;;;;;6182651;23;20163;-91
2023/09/27 10:16:51;;;;;;;16.63;11.30;;;;;;;;;;6182553;23;20171;-89
2023/09/27 10:20:12;;;;;;;16.10;10.73;;;;;;;;;;6182580;23;20194;-92
2023/09/27 10:23:17;;;;;;;15.07;9.77;;;;;;;;;;6183487;23;20168;-90
2023/09/27 10:26:32;;;;;;;13.20;9.30;;;;;;;;;;6183756;23;20176;-92
2023/09/27 10:30:00;;;;;;;12.73;9.40;;;;;;;;;;6186382;22;20171;-88
2023/09/27 10:33:22;;;;;;;12.85;9.20;;;;;;;;;;6182667;23;20222;-91
2023/09/27 10:36:35;;;;;;;13.15;8.45;;;;;;;;;;6183429;23;20187;-91
2023/09/27 10:40:05;;;;;;;13.50;8.57;;;;;;;;;;6201573;23;20195;-93
2023/09/27 10:43:40;;;;;;;16.58;8.63;;;;;;;;;;6184872;22;20719;-93
2023/09/27 10:46:48;;;;;;;12.15;7.45;;;;;;;;;;6182717;23;20212;-91
2023/09/27 10:49:57;;;;;;;12.73;7.88;;;;;;;;;;6182364;23;20215;-95
2023/09/27 10:53:04;;;;;;;15.57;8.45;;;;;;;;;;6182895;22;20341;-93
2023/09/27 10:56:10;;;;;;;13.40;8.20;;;;;;;;;;6182534;23;20167;-94
2023/09/27 10:59:23;;;;;;;14.80;8.05;;;;;;;;;;6182681;23;20195;-92
2023/09/27 11:02:32;;;;;;;15.80;8.68;;;;;;;;;;6181759;23;20501;-93
2023/09/27 11:05:39;;;;;;;14.35;8.18;;;;;;;;;;6184398;23;20168;-92
2023/09/27 11:08:49;;;;;;;13.65;8.15;;;;;;;;;;6183004;23;20171;-93
2023/09/27 11:11:55;;;;;;;12.45;8.05;;;;;;;;;;6182096;23;20167;-93
2023/09/27 11:15:00;;;;;;;11.98;7.57;;;;;;;;;;6183381;23;20179;-92
2023/09/27 11:18:08;;;;;;;14.43;8.57;;;;;;;;;;6180293;23;20188;-91
2023/09/27 11:21:17;;;;;;;13.65;7.68;;;;;;;;;;6181621;23;20228;-91
2023/09/27 11:24:24;;;;;;;12.02;8.10;;;;;;;;;;6181826;23;20559;-93
2023/09/27 11:27:33;;;;;;;14.20;7.75;;;;;;;;;;6183564;22;20171;-93
2023/09/27 11:30:40;;;;;;;11.80;8.15;;;;;;;;;;6182765;23;20172;-92
2023/09/27 11:33:45;;;;;;;15.95;8.48;;;;;;;;;;6181067;23;20186;-92
2023/09/27 11:36:53;;;;;;;13.95;8.65;;;;;;;;;;6182707;23;20175;-92
2023/09/27 11:39:59;;;;;;;16.25;9.32;;;;;;;;;;6183783;23;20183;-93
2023/09/27 11:43:07;;;;;;;15.63;8.98;;;;;;;;;;6183835;23;20607;-92
2023/09/27 11:46:12;;;;;;;16.45;9.68;;;;;;;;;;6184795;23;20195;-94
2023/09/27 11:49:18;;;;;;;16.52;9.00;;;;;;;;;;6182200;23;20166;-91
2023/09/27 11:52:26;;;;;;;19.05;9.27;;;;;;;;;;6180469;23;20152;-92
2023/09/27 11:55:34;;;;;;;18.50;10.82;;;;;;;;;;6182515;23;20227;-90
2023/09/27 11:58:42;;;;;;;18.10;10.90;;;;;;;;;;6181366;23;20171;-91
2023/09/27 12:01:50;;;;;;;14.88;9.27;;;;;;;;;;6182626;23;20179;-92
2023/09/27 12:04:55;;;;;;;24.85;10.98;;;;;;;;;;6181378;23;20175;-90
2023/09/27 12:08:02;;;;;;;19.95;10.75;;;;;;;;;;6182177;23;20155;-91
2023/09/27 12:11:09;;;;;;;19.02;10.07;;;;;;;;;;6202059;23;20168;-90
2023/09/27 12:14:16;;;;;;;17.80;10.93;;;;;;;;;;6183832;22;20221;-90
2023/09/27 12:17:25;;;;;;;20.60;11.38;;;;;;;;;;6188117;23;20171;-93
2023/09/27 12:20:32;;;;;;;16.42;10.95;;;;;;;;;;6184926;23;20191;-91
2023/09/27 12:23:41;;;;;;;17.85;10.15;;;;;;;;;;6185722;23;20152;-92
2023/09/27 12:26:49;;;;;;;19.35;11.07;;;;;;;;;;6183651;23;20216;-92
2023/09/27 12:29:55;;;;;;;17.75;9.95;;;;;;;;;;6182159;23;20216;-89
2023/09/27 12:33:02;;;;;;;16.95;9.95;;;;;;;;;;6184997;23;20179;-95
2023/09/27 12:36:11;;;;;;;16.30;9.82;;;;;;;;;;6184165;23;20243;-91
2023/09/27 12:39:16;;;;;;;26.88;12.65;;;;;;;;;;6184321;22;20179;-94
2023/09/27 12:42:26;;;;;;;19.17;11.23;;;;;;;;;;6185955;23;20167;-91
2023/09/27 12:48:55;;;;;;;20.02;9.63;;;;;;;;;;6184911;23;20180;-90
2023/09/27 12:52:01;;;;;;;19.00;9.95;;;;;;;;;;6168633;22;20167;-89
2023/09/27 12:55:10;;;;;;;13.27;8.07;;;;;;;;;;6184488;22;20168;-89
2023/09/27 12:58:17;;;;;;;20.17;9.90;;;;;;;;;;6184666;22;20167;-90
2023/09/27 13:01:22;;;;;;;17.30;8.48;;;;;;;;;;6185360;23;20172;-92
2023/09/27 13:04:27;;;;;;;14.65;8.93;;;;;;;;;;6184351;23;20167;-92
2023/09/27 13:07:32;;;;;;;20.42;9.80;;;;;;;;;;6181992;23;20243;-88
2023/09/27 13:10:38;;;;;;;18.98;9.20;;;;;;;;;;6182140;22;20192;-90
2023/09/27 13:13:45;;;;;;;14.98;8.27;;;;;;;;;;6184748;22;20184;-93
2023/09/27 13:16:54;;;;;;;14.82;8.23;;;;;;;;;;6181896;23;20239;-90
2023/09/27 13:20:06;;;;;;;16.23;8.18;;;;;;;;;;6180786;23;20196;-88
2023/09/27 13:23:13;;;;;;;11.65;7.07;;;;;;;;;;6178439;23;20255;-91
2023/09/27 13:26:18;;;;;;;12.05;6.45;;;;;;;;;;6179382;23;20164;-91
2023/09/27 13:29:24;;;;;;;11.70;6.45;;;;;;;;;;6179623;23;20175;-92
2023/09/27 13:32:32;;;;;;;16.42;7.10;;;;;;;;;;6181919;23;20207;-93
2023/09/27 13:35:39;;;;;;;10.40;6.45;;;;;;;;;;6183356;23;20498;-91
2023/09/27 13:38:46;;;;;;;11.13;5.40;;;;;;;;;;6181203;22;20186;-91
2023/09/27 13:41:55;;;;;;;12.80;5.57;;;;;;;;;;6185143;22;20171;-91
2023/09/27 13:45:05;;;;;;;10.63;5.68;;;;;;;;;;6182406;23;20265;-94
2023/09/27 13:48:10;;;;;;;11.63;5.13;;;;;;;;;;6182949;23;20238;-93
2023/09/27 13:51:19;;;;;;;8.63;4.88;;;;;;;;;;6156193;23;20476;-91
2023/09/27 13:54:26;;;;;;;7.03;5.15;;;;;;;;;;6183227;23;20237;-91
2023/09/27 13:57:34;;;;;;;8.07;4.72;;;;;;;;;;6183531;22;20167;-91
2023/09/27 14:00:51;;;;;;;12.98;5.15;;;;;;;;;;6182909;23;20199;-90
2023/09/27 14:04:00;;;;;;;8.98;4.35;;;;;;;;;;6183598;23;20171;-92
2023/09/27 14:07:05;;;;;;;9.98;4.65;;;;;;;;;;6183494;23;20167;-91
2023/09/27 14:10:11;;;;;;;5.53;4.05;;;;;;;;;;6183547;22;20167;-91
2023/09/27 14:13:17;;;;;;;7.72;5.20;;;;;;;;;;6180268;23;20288;-91
2023/09/27 14:16:24;;;;;;;4.85;3.40;;;;;;;;;;6180003;22;20163;-91
2023/09/27 14:19:29;;;;;;;11.93;3.30;;;;;;;;;;6180459;23;20191;-91
2023/09/27 14:22:34;;;;;;;10.32;4.18;;;;;;;;;;6184134;23;20219;-89
2023/09/27 14:25:39;;;;;;;7.70;3.38;;;;;;;;;;6181281;23;20167;-93
2023/09/27 14:28:44;;;;;;;6.20;3.22;;;;;;;;;;6183023;23;20166;-94
2023/09/27 14:31:52;;;;;;;6.10;2.90;;;;;;;;;;6180590;23;20504;-92
2023/09/27 14:35:01;;;;;;;10.50;3.30;;;;;;;;;;6181077;23;20271;-89
2023/09/27 14:38:06;;;;;;;5.70;3.10;;;;;;;;;;6181900;23;20179;-89
2023/09/27 14:41:11;;;;;;;4.07;2.80;;;;;;;;;;6185743;22;20246;-89
2023/09/27 14:44:18;;;;;;;5.60;3.08;;;;;;;;;;6186611;23;20240;-91
2023/09/27 14:47:25;;;;;;;9.93;3.60;;;;;;;;;;6184075;23;20190;-93
2023/09/27 14:50:31;;;;;;;12.45;5.03;;;;;;;;;;6183194;23;20271;-93
2023/09/27 14:53:37;;;;;;;6.32;3.40;;;;;;;;;;6182297;23;20166;-93
2023/09/27 14:56:43;;;;;;;7.63;3.25;;;;;;;;;;6181916;23;20615;-90
2023/09/27 14:59:53;;;;;;;8.70;3.45;;;;;;;;;;6180449;23;20199;-93
2023/09/27 15:03:02;;;;;;;5.80;3.40;;;;;;;;;;6181713;22;20172;-92
2023/09/27 15:06:08;;;;;;;5.40;3.28;;;;;;;;;;6183958;23;20507;-89
2023/09/27 15:09:13;;;;;;;9.27;3.22;;;;;;;;;;6184135;22;20179;-87
2023/09/27 15:12:21;;;;;;;6.50;3.08;;;;;;;;;;6182178;23;20167;-91
2023/09/27 15:15:28;;;;;;;6.28;3.08;;;;;;;;;;6183682;23;20240;-91
2023/09/27 15:18:37;;;;;;;11.23;3.75;;;;;;;;;;6182232;22;20164;-88
2023/09/27 15:21:43;;;;;;;6.03;3.50;;;;;;;;;;6181474;22;20178;-88
2023/09/27 15:24:49;;;;;;;8.43;3.85;;;;;;;;;;6184082;23;20164;-89
2023/09/27 15:27:55;;;;;;;10.60;3.83;;;;;;;;;;6181921;23;20174;-91
2023/09/27 15:31:02;;;;;;;11.20;3.92;;;;;;;;;;6187127;23;20234;-90
2023/09/27 15:34:09;;;;;;;8.13;3.72;;;;;;;;;;6181668;23;20659;-89
2023/09/27 15:40:34;;;;;;;7.65;4.50;;;;;;;;;;6181054;23;20214;-92
2023/09/27 15:43:39;;;;;;;10.80;4.35;;;;;;;;;;6178972;23;20162;-90
2023/09/27 15:46:49;;;;;;;9.75;4.30;;;;;;;;;;6181801;23;20230;-93
2023/09/27 15:49:57;;;;;;;11.40;4.20;;;;;;;;;;6185044;22;20187;-89
2023/09/27 15:53:03;;;;;;;11.45;4.65;;;;;;;;;;6184795;23;20223;-90
2023/09/27 15:56:17;;;;;;;9.60;4.43;;;;;;;;;;6198901;22;20163;-92
2023/09/27 15:59:24;;;;;;;9.63;4.47;;;;;;;;;;6189093;23;20168;-89
2023/09/27 16:02:30;;;;;;;9.02;4.30;;;;;;;;;;6203673;23;20503;-90
2023/09/27 16:05:37;;;;;;;13.85;5.07;;;;;;;;;;6189196;22;20199;-91
2023/09/27 16:08:42;;;;;;;16.65;6.03;;;;;;;;;;6184876;23;20168;-90
2023/09/27 16:11:51;;;;;;;13.02;5.35;;;;;;;;;;6188604;23;20226;-91
2023/09/27 16:14:57;;;;;;;16.70;5.68;;;;;;;;;;6182318;22;20163;-90
2023/09/27 16:18:02;;;;;;;13.30;5.43;;;;;;;;;;6182424;22;20168;-92
2023/09/27 16:21:09;;;;;;;12.75;5.70;;;;;;;;;;6186566;23;20199;-92
2023/09/27 16:24:15;;;;;;;10.25;5.60;;;;;;;;;;6182902;22;20184;-93
2023/09/27 16:27:20;;;;;;;11.48;5.55;;;;;;;;;;6182252;23;20270;-89
2023/09/27 16:30:25;;;;;;;24.45;9.98;;;;;;;;;;6186889;23;20175;-90
2023/09/27 16:33:34;;;;;;;15.20;8.60;;;;;;;;;;6183831;22;20207;-89
2023/09/27 16:36:41;;;;;;;14.93;7.88;;;;;;;;;;6183409;23;20211;-91
2023/09/27 16:39:48;;;;;;;16.13;6.53;;;;;;;;;;6185331;23;20172;-89
2023/09/27 16:43:20;;;;;;;14.82;7.90;;;;;;;;;;6188182;23;20201;-89
2023/09/27 16:46:35;;;;;;;14.90;8.27;;;;;;;;;;6185602;22;20199;-93
2023/09/27 16:49:42;;;;;;;20.05;7.85;;;;;;;;;;6186243;23;20607;-92
2023/09/27 16:56:13;;;;;;;19.42;7.88;;;;;;;;;;6188547;23;20623;-94
2023/09/27 16:59:20;;;;;;;13.90;7.47;;;;;;;;;;6187694;22;20172;-91
2023/09/27 17:02:29;;;;;;;25.20;12.93;;;;;;;;;;6188390;22;20167;-94
2023/09/27 17:05:35;;;;;;;18.75;9.98;;;;;;;;;;6186134;22;20187;-90
2023/09/27 17:08:42;;;;;;;17.67;8.18;;;;;;;;;;6184765;22;20168;-92
2023/09/27 17:11:47;;;;;;;22.70;8.55;;;;;;;;;;6187825;23;20196;-93
2023/09/27 17:14:53;;;;;;;13.63;6.75;;;;;;;;;;6203931;22;20171;-91
2023/09/27 17:17:59;;;;;;;21.08;8.10;;;;;;;;;;6189934;22;20171;-93
2023/09/27 17:21:05;;;;;;;20.92;9.32;;;;;;;;;;6186573;23;20204;-92
2023/09/27 17:24:16;;;;;;;20.45;9.05;;;;;;;;;;6188985;22;20168;-93
2023/09/27 17:27:21;;;;;;;15.82;7.88;;;;;;;;;;6186246;22;20198;-91
2023/09/27 17:30:27;;;;;;;17.90;8.45;;;;;;;;;;6186296;22;20171;-91
2023/09/27 17:33:34;;;;;;;23.77;9.00;;;;;;;;;;6187754;22;20168;-91
2023/09/27 17:36:40;;;;;;;22.77;9.10;;;;;;;;;;6186947;23;20164;-91
2023/09/27 17:39:48;;;;;;;19.42;8.73;;;;;;;;;;6186198;23;20191;-90
2023/09/27 17:42:54;;;;;;;14.73;8.63;;;;;;;;;;6185846;22;20156;-92
2023/09/27 17:46:00;;;;;;;21.52;8.50;;;;;;;;;;6185855;22;20168;-90
2023/09/27 17:49:05;;;;;;;29.42;8.63;;;;;;;;;;6188132;22;20216;-89
2023/09/27 17:52:14;;;;;;;21.88;9.02;;;;;;;;;;6186474;23;20180;-90
2023/09/27 17:55:22;;;;;;;19.17;9.32;;;;;;;;;;6186104;23;20215;-91
2023/09/27 17:58:29;;;;;;;16.40;9.00;;;;;;;;;;6186128;22;20188;-92
2023/09/27 18:01:34;;;;;;;15.07;8.32;;;;;;;;;;6188530;22;20195;-88
2023/09/27 18:04:40;;;;;;;21.65;9.05;;;;;;;;;;6187126;22;20180;-90
2023/09/27 18:07:45;;;;;;;19.58;11.30;;;;;;;;;;6186434;23;20196;-90
2023/09/27 18:10:54;;;;;;;21.40;13.50;;;;;;;;;;6188287;23;20224;-87
2023/09/27 18:13:59;;;;;;;19.95;10.35;;;;;;;;;;6184263;23;20151;-94
2023/09/27 18:17:05;;;;;;;19.42;10.18;;;;;;;;;;6185039;22;20225;-92
2023/09/27 18:20:11;;;;;;;33.50;16.48;;;;;;;;;;6189451;23;20229;-92
2023/09/27 18:23:19;;;;;;;17.95;10.10;;;;;;;;;;6187418;23;20222;-92
2023/09/27 18:26:28;;;;;;;17.65;9.85;;;;;;;;;;6189604;23;20191;-90
2023/09/27 18:29:38;;;;;;;28.35;12.52;;;;;;;;;;6205464;23;20234;-93
2023/09/27 18:32:43;;;;;;;23.40;10.05;;;;;;;;;;6186042;22;20172;-93
2023/09/27 18:35:48;;;;;;;18.77;9.80;;;;;;;;;;6186329;22;20163;-94